KORS Airport Information

Runway Information
Runway 16 Length 2900 ft width 60 ft
Elevation 31 ft Threshold 0 ft Heading 0
Runway 34 Length 2900 ft Width 60 ft
Elevation 31 ft Threshold 0 ft Heading 0
Airport Frequencies
Airport Navaids
Airport Weather Information & NOTAM
ADDS - METARS form results

(1106 UTC 18 October 2018)
Data provider http://aviationweather.gov/metar/data/
 
METAR text: KORS 181055Z AUTO 00000KT 7SM CLR 07/07 A3013 RMK AO2
Conditions at: KORS (EASTSOUND/ORCAS , WA, US) observed 1055 UTC 18 October 2018
Temperature: 7.0°C (45°F)
Dewpoint: 7.0°C (45°F) [RH = 100%]
Pressure (altimeter): 30.13 inches Hg (1020.4 mb)
Winds: calm
Visibility: 7 miles (11 km)
Ceiling: at least 12,000 feet AGL
Clouds: sky clear below 12,000 feet AGL
Weather: automated observation with no human augmentation;
there may or may not be significant weather present at this time

METAR text: KORS 181035Z AUTO 00000KT 8SM CLR 07/07 A3012 RMK AO2
Conditions at: KORS (EASTSOUND/ORCAS , WA, US) observed 1035 UTC 18 October 2018
Temperature: 7.0°C (45°F)
Dewpoint: 7.0°C (45°F) [RH = 100%]
Pressure (altimeter): 30.12 inches Hg (1020.1 mb)
Winds: calm
Visibility: 8 miles (13 km)
Ceiling: at least 12,000 feet AGL
Clouds: sky clear below 12,000 feet AGL
Weather: automated observation with no human augmentation;
there may or may not be significant weather present at this time

METAR text: KORS 181015Z AUTO 00000KT 10SM CLR 06/06 A3012 RMK AO2
Conditions at: KORS (EASTSOUND/ORCAS , WA, US) observed 1015 UTC 18 October 2018
Temperature: 6.0°C (43°F)
Dewpoint: 6.0°C (43°F) [RH = 100%]
Pressure (altimeter): 30.12 inches Hg (1020.1 mb)
Winds: calm
Visibility: 10 or more miles (16+ km)
Ceiling: at least 12,000 feet AGL
Clouds: sky clear below 12,000 feet AGL
Weather: automated observation with no human augmentation;
there may or may not be significant weather present at this time